Time;durP1;ratioP1;P1;durP2;ratioP2;P2;SDS_P1;SDS_P2;PMS_P1;PMS_P2;Temp;Humidity;BMP_temperature;BMP_pressure;BME280_temperature;BME280_humidity;BME280_pressure;Samples;Min_cycle;Max_cycle;Signal;HPM_P1;HPM_P2
2022/09/21 00:01:28;;;;;;;1999.90;999.90;;;;;;;;;;5155850;27;20038;-49
2022/09/21 00:03:59;;;;;;;1999.90;999.90;;;;;;;;;;5155764;27;20030;-52
2022/09/21 00:06:28;;;;;;;1999.90;999.90;;;;;;;;;;5155480;27;20515;-50
2022/09/21 00:08:58;;;;;;;1999.90;999.90;;;;;;;;;;5155789;27;20035;-53
2022/09/21 00:11:28;;;;;;;1999.90;999.90;;;;;;;;;;5155474;27;20406;-50
2022/09/21 00:13:59;;;;;;;1999.90;999.90;;;;;;;;;;5155859;27;20426;-50
2022/09/21 00:16:27;;;;;;;1999.90;999.90;;;;;;;;;;5155423;27;20034;-48
2022/09/21 00:18:55;;;;;;;1999.90;999.90;;;;;;;;;;5155374;27;20042;-46
2022/09/21 00:21:23;;;;;;;1999.90;999.90;;;;;;;;;;5155282;27;20037;-50
2022/09/21 00:23:50;;;;;;;1999.90;999.90;;;;;;;;;;5155126;27;20038;-48
2022/09/21 00:26:21;;;;;;;1999.90;999.90;;;;;;;;;;5155051;27;20045;-51
2022/09/21 00:28:54;;;;;;;1999.90;999.90;;;;;;;;;;5155158;27;20098;-48
2022/09/21 00:31:22;;;;;;;1999.90;999.90;;;;;;;;;;5155083;27;20049;-49
2022/09/21 00:33:52;;;;;;;1999.90;999.90;;;;;;;;;;5155143;27;20066;-52
2022/09/21 00:36:22;;;;;;;1999.90;999.90;;;;;;;;;;5154954;27;20472;-46
2022/09/21 00:38:56;;;;;;;1999.90;999.90;;;;;;;;;;5154861;27;20049;-47
2022/09/21 00:41:24;;;;;;;;;;;;;;;;;;5155339;27;20045;-50
2022/09/21 00:44:23;;;;;;;1999.90;999.90;;;;;;;;;;5155112;27;19927;-45
2022/09/21 00:46:54;;;;;;;1999.90;999.90;;;;;;;;;;5154797;27;20039;-50
2022/09/21 00:49:22;;;;;;;1999.90;999.90;;;;;;;;;;5153379;27;20043;-53
2022/09/21 00:51:52;;;;;;;1999.90;999.90;;;;;;;;;;5154971;27;20050;-52
2022/09/21 00:54:26;;;;;;;1999.90;999.90;;;;;;;;;;5154657;27;20052;-48
2022/09/21 00:56:55;;;;;;;1999.90;999.90;;;;;;;;;;5154589;27;20109;-48
2022/09/21 00:59:22;;;;;;;1999.90;999.90;;;;;;;;;;5154409;27;20030;-51
2022/09/21 01:01:57;;;;;;;1999.90;999.90;;;;;;;;;;5153956;27;20087;-48
2022/09/21 01:04:27;;;;;;;1999.90;999.90;;;;;;;;;;5153552;27;20497;-51
2022/09/21 01:06:58;;;;;;;1999.90;999.90;;;;;;;;;;5154653;27;20397;-49
2022/09/21 01:09:26;;;;;;;1999.90;999.90;;;;;;;;;;5154193;27;20494;-46
2022/09/21 01:12:17;;;;;;;1999.90;999.90;;;;;;;;;;5154102;27;20490;-47
2022/09/21 01:14:58;;;;;;;1999.90;999.90;;;;;;;;;;5154275;27;20034;-51
2022/09/21 01:17:50;;;;;;;1999.90;999.90;;;;;;;;;;5154176;27;20050;-48
2022/09/21 01:20:43;;;;;;;1999.90;999.90;;;;;;;;;;5154160;27;20126;-50
2022/09/21 01:23:29;;;;;;;1999.90;999.90;;;;;;;;;;5154289;27;20046;-49
2022/09/21 01:26:11;;;;;;;1999.90;999.90;;;;;;;;;;5154057;27;20439;-52
2022/09/21 01:28:57;;;;;;;1999.90;999.90;;;;;;;;;;5153888;27;20508;-49
2022/09/21 01:31:40;;;;;;;1999.90;999.90;;;;;;;;;;5154126;27;20505;-53
2022/09/21 01:34:15;;;;;;;1999.90;999.90;;;;;;;;;;5154129;27;20038;-48
2022/09/21 01:36:46;;;;;;;1999.90;999.90;;;;;;;;;;5135737;27;20840;-48
2022/09/21 01:39:16;;;;;;;1999.90;999.90;;;;;;;;;;5153792;27;20035;-46
2022/09/21 01:41:45;;;;;;;1999.90;999.90;;;;;;;;;;5153768;27;20043;-53
2022/09/21 01:44:18;;;;;;;1999.90;999.90;;;;;;;;;;5153647;27;20034;-53
2022/09/21 01:46:47;;;;;;;1999.90;999.90;;;;;;;;;;5153776;27;20042;-49
2022/09/21 01:49:20;;;;;;;1999.90;999.90;;;;;;;;;;5153693;27;20397;-49
2022/09/21 01:51:53;;;;;;;1999.90;999.90;;;;;;;;;;5153903;27;20034;-52
2022/09/21 01:54:33;;;;;;;1999.90;999.90;;;;;;;;;;5153252;27;20039;-49
2022/09/21 01:57:20;;;;;;;1999.90;999.90;;;;;;;;;;5153698;27;20034;-46
2022/09/21 01:59:52;;;;;;;1999.90;999.90;;;;;;;;;;5153344;27;20106;-51
2022/09/21 02:02:38;;;;;;;1999.90;999.90;;;;;;;;;;5139048;27;20138;-49
2022/09/21 02:05:06;;;;;;;1999.90;999.90;;;;;;;;;;5132616;28;20035;-51
2022/09/21 02:07:36;;;;;;;1999.90;999.90;;;;;;;;;;5132731;28;20408;-49
2022/09/21 02:10:07;;;;;;;1999.90;999.90;;;;;;;;;;5132694;28;20108;-49
2022/09/21 02:12:37;;;;;;;1999.90;999.90;;;;;;;;;;5134924;27;20043;-51
2022/09/21 02:15:05;;;;;;;1999.90;999.90;;;;;;;;;;5136936;27;20045;-49
2022/09/21 02:17:52;;;;;;;1999.90;999.90;;;;;;;;;;5137104;27;20066;-49
2022/09/21 02:20:25;;;;;;;1999.90;999.90;;;;;;;;;;5136817;27;20154;-50
2022/09/21 02:22:53;;;;;;;;;;;;;;;;;;5137131;27;20118;-44
2022/09/21 02:25:30;;;;;;;1999.90;999.90;;;;;;;;;;5136815;27;20342;-49
2022/09/21 02:28:24;;;;;;;1999.90;999.90;;;;;;;;;;5137073;27;20097;-51
2022/09/21 02:31:01;;;;;;;1999.90;999.90;;;;;;;;;;5149186;27;20158;-47
2022/09/21 02:33:36;;;;;;;1999.90;999.90;;;;;;;;;;5157638;27;20077;-45
2022/09/21 02:36:21;;;;;;;1999.90;999.90;;;;;;;;;;5157605;27;20578;-46
2022/09/21 02:38:55;;;;;;;1999.90;999.90;;;;;;;;;;5157203;27;20038;-50
2022/09/21 02:42:07;;;;;;;1999.90;999.90;;;;;;;;;;5157149;27;20048;-52
2022/09/21 02:44:41;;;;;;;1999.90;999.90;;;;;;;;;;5157135;27;20097;-52
2022/09/21 02:47:27;;;;;;;1999.90;999.90;;;;;;;;;;5157469;27;20038;-45
2022/09/21 02:49:59;;;;;;;1999.90;999.90;;;;;;;;;;5156623;27;20117;-45
2022/09/21 02:52:29;;;;;;;1999.90;999.90;;;;;;;;;;5156644;27;20038;-47
2022/09/21 02:54:58;;;;;;;1999.90;999.90;;;;;;;;;;5157060;27;20039;-46
2022/09/21 02:57:26;;;;;;;1999.90;999.90;;;;;;;;;;5157123;27;20107;-45
2022/09/21 02:59:54;;;;;;;1999.90;999.90;;;;;;;;;;5156941;27;20035;-48
2022/09/21 03:02:21;;;;;;;1999.90;999.90;;;;;;;;;;5156164;27;20513;-51
2022/09/21 03:04:49;;;;;;;1999.90;999.90;;;;;;;;;;5156780;27;20045;-52
2022/09/21 03:07:16;;;;;;;1999.90;999.90;;;;;;;;;;5156883;27;20042;-47
2022/09/21 03:09:44;;;;;;;1999.90;999.90;;;;;;;;;;5156692;27;20557;-48
2022/09/21 03:12:11;;;;;;;1999.90;999.90;;;;;;;;;;5156832;27;20498;-45
2022/09/21 03:14:39;;;;;;;1999.90;999.90;;;;;;;;;;5156373;27;20062;-45
2022/09/21 03:17:07;;;;;;;1999.90;999.90;;;;;;;;;;5156668;27;20045;-45
2022/09/21 03:19:35;;;;;;;1999.90;999.90;;;;;;;;;;5156598;27;20039;-47
2022/09/21 03:22:03;;;;;;;1999.90;999.90;;;;;;;;;;5156045;27;20058;-43
2022/09/21 03:24:45;;;;;;;1999.90;999.90;;;;;;;;;;5155961;27;20038;-47
2022/09/21 03:27:15;;;;;;;1999.90;999.90;;;;;;;;;;5137726;27;20114;-45
2022/09/21 03:29:42;;;;;;;1999.90;999.90;;;;;;;;;;5138137;27;20486;-44
2022/09/21 03:32:10;;;;;;;1999.90;999.90;;;;;;;;;;5156385;27;20043;-43
2022/09/21 03:34:37;;;;;;;1999.90;999.90;;;;;;;;;;5156071;27;20042;-49
2022/09/21 03:37:07;;;;;;;1999.90;999.90;;;;;;;;;;5156294;27;20031;-46
2022/09/21 03:39:35;;;;;;;1999.90;999.90;;;;;;;;;;5156024;27;20077;-46
2022/09/21 03:42:03;;;;;;;1999.90;999.90;;;;;;;;;;5155556;27;20046;-42
2022/09/21 03:44:30;;;;;;;1999.90;999.90;;;;;;;;;;5156107;27;20035;-42
2022/09/21 03:46:58;;;;;;;1999.90;999.90;;;;;;;;;;5137696;27;20035;-51
2022/09/21 03:49:25;;;;;;;1999.90;999.90;;;;;;;;;;5155858;27;20038;-42
2022/09/21 03:51:53;;;;;;;1999.90;999.90;;;;;;;;;;5156006;27;20422;-49
2022/09/21 03:54:24;;;;;;;1999.90;999.90;;;;;;;;;;5155691;27;20118;-47
2022/09/21 03:56:52;;;;;;;1999.90;999.90;;;;;;;;;;5114293;28;20499;-49
2022/09/21 03:59:19;;;;;;;1999.90;999.90;;;;;;;;;;5114218;28;20050;-43
2022/09/21 04:01:46;;;;;;;1999.90;999.90;;;;;;;;;;5114079;28;20070;-43
2022/09/21 04:04:15;;;;;;;1999.90;999.90;;;;;;;;;;5114284;28;20058;-44
2022/09/21 04:06:45;;;;;;;1999.90;999.90;;;;;;;;;;5114024;28;20465;-47
2022/09/21 04:09:12;;;;;;;1999.90;999.90;;;;;;;;;;5114185;28;20455;-45
2022/09/21 04:11:39;;;;;;;1999.90;999.90;;;;;;;;;;5114182;28;20114;-43
2022/09/21 04:14:07;;;;;;;1999.90;999.90;;;;;;;;;;5114360;28;20044;-47
2022/09/21 04:16:34;;;;;;;1999.90;999.90;;;;;;;;;;5113194;28;20453;-43
2022/09/21 04:19:02;;;;;;;1999.90;999.90;;;;;;;;;;5114312;28;20395;-45
2022/09/21 04:21:30;;;;;;;1999.90;999.90;;;;;;;;;;5114094;28;20039;-46
2022/09/21 04:23:57;;;;;;;1999.90;999.90;;;;;;;;;;5114109;28;20032;-49
2022/09/21 04:26:30;;;;;;;1999.90;999.90;;;;;;;;;;5113994;28;20039;-43
2022/09/21 04:28:58;;;;;;;1999.90;999.90;;;;;;;;;;5112463;28;20573;-42
2022/09/21 04:31:28;;;;;;;1999.90;999.90;;;;;;;;;;5113531;27;20065;-41
2022/09/21 04:33:57;;;;;;;1999.90;999.90;;;;;;;;;;5113807;28;20514;-46
2022/09/21 04:36:26;;;;;;;1999.90;999.90;;;;;;;;;;5111466;28;20043;-47
2022/09/21 04:38:54;;;;;;;1999.90;999.90;;;;;;;;;;5111591;28;20051;-43
2022/09/21 04:41:21;;;;;;;1999.90;999.90;;;;;;;;;;5112503;28;20040;-44
2022/09/21 04:43:48;;;;;;;1999.90;999.90;;;;;;;;;;5112391;28;20040;-44
2022/09/21 04:46:18;;;;;;;1999.90;999.90;;;;;;;;;;5111769;27;20036;-46
2022/09/21 04:48:47;;;;;;;1999.90;999.90;;;;;;;;;;5111463;28;20036;-44
2022/09/21 04:51:16;;;;;;;1999.90;999.90;;;;;;;;;;5111344;28;20043;-44
2022/09/21 04:53:44;;;;;;;1999.90;999.90;;;;;;;;;;5110025;28;20043;-46
2022/09/21 04:56:15;;;;;;;1999.90;999.90;;;;;;;;;;5141643;27;20043;-50
2022/09/21 04:58:43;;;;;;;1999.90;999.90;;;;;;;;;;5152497;27;20411;-47
2022/09/21 05:01:10;;;;;;;1999.90;999.90;;;;;;;;;;5154030;27;20494;-49
2022/09/21 05:03:38;;;;;;;1999.90;999.90;;;;;;;;;;5154260;27;20408;-47
2022/09/21 05:06:06;;;;;;;1999.90;999.90;;;;;;;;;;5136407;27;20100;-45
2022/09/21 05:11:20;;;;;;;1999.90;999.90;;;;;;;;;;5154252;27;20502;-47
2022/09/21 05:13:47;;;;;;;1999.90;999.90;;;;;;;;;;5154349;27;20038;-53
2022/09/21 05:16:16;;;;;;;1999.90;999.90;;;;;;;;;;5154340;27;20030;-50
2022/09/21 05:18:44;;;;;;;1999.90;999.90;;;;;;;;;;5154120;27;20385;-49
2022/09/21 05:21:15;;;;;;;1999.90;999.90;;;;;;;;;;5154317;27;20041;-49
2022/09/21 05:23:42;;;;;;;1999.90;999.90;;;;;;;;;;5154079;27;20077;-44
2022/09/21 05:26:10;;;;;;;1999.90;999.90;;;;;;;;;;5153725;27;20568;-47
2022/09/21 05:28:38;;;;;;;1999.90;999.90;;;;;;;;;;5154001;27;20514;-43
2022/09/21 05:31:32;;;;;;;1999.90;999.90;;;;;;;;;;5154156;27;20053;-48
2022/09/21 05:34:12;;;;;;;1999.90;999.90;;;;;;;;;;5143575;27;20051;-43
2022/09/21 05:36:54;;;;;;;1999.90;999.90;;;;;;;;;;5153653;27;20084;-47
2022/09/21 05:39:21;;;;;;;1999.90;999.90;;;;;;;;;;5153930;27;20041;-46
2022/09/21 05:41:49;;;;;;;1999.90;999.90;;;;;;;;;;5154036;27;20035;-49
2022/09/21 05:44:17;;;;;;;1999.90;999.90;;;;;;;;;;5153676;27;20065;-50
2022/09/21 05:46:58;;;;;;;1999.90;999.90;;;;;;;;;;5153274;27;20402;-48
2022/09/21 05:49:37;;;;;;;1999.90;999.90;;;;;;;;;;5153633;27;20059;-50
2022/09/21 05:52:21;;;;;;;1999.90;999.90;;;;;;;;;;5154061;27;20088;-50
2022/09/21 05:55:10;;;;;;;1999.90;999.90;;;;;;;;;;5153431;27;20375;-51
2022/09/21 05:58:01;;;;;;;1999.90;999.90;;;;;;;;;;5153916;27;20042;-48
2022/09/21 06:00:41;;;;;;;1999.90;999.90;;;;;;;;;;5143321;27;20053;-43
2022/09/21 06:03:35;;;;;;;1999.90;999.90;;;;;;;;;;5153876;27;20390;-49
2022/09/21 06:06:07;;;;;;;1999.90;999.90;;;;;;;;;;5153386;27;20041;-50
2022/09/21 06:08:35;;;;;;;1999.90;999.90;;;;;;;;;;5153517;27;20037;-48
2022/09/21 06:11:02;;;;;;;1999.90;999.90;;;;;;;;;;5153344;27;20046;-44
2022/09/21 06:13:30;;;;;;;1999.90;999.90;;;;;;;;;;5153536;27;20031;-48
2022/09/21 06:16:01;;;;;;;1999.90;999.90;;;;;;;;;;5153402;27;20041;-49
2022/09/21 06:18:29;;;;;;;1999.90;999.90;;;;;;;;;;5153470;27;20043;-48
2022/09/21 06:20:56;;;;;;;1999.90;999.90;;;;;;;;;;5134797;27;20050;-48
2022/09/21 06:23:24;;;;;;;1999.90;999.90;;;;;;;;;;5153304;27;20497;-42
2022/09/21 06:25:52;;;;;;;1999.90;999.90;;;;;;;;;;5153537;27;20117;-44
2022/09/21 06:28:24;;;;;;;1999.90;999.90;;;;;;;;;;5153273;27;20095;-46
2022/09/21 06:30:53;;;;;;;1999.90;999.90;;;;;;;;;;5153177;27;20038;-49
2022/09/21 06:33:22;;;;;;;1999.90;999.90;;;;;;;;;;5153289;27;20038;-48
2022/09/21 06:35:58;;;;;;;1999.90;999.90;;;;;;;;;;5153510;27;20120;-46
2022/09/21 06:38:27;;;;;;;1999.90;999.90;;;;;;;;;;5152958;27;20095;-50
2022/09/21 06:41:01;;;;;;;1999.90;999.90;;;;;;;;;;5134884;27;20126;-43
2022/09/21 06:43:28;;;;;;;;;;;;;;;;;;5153470;27;20562;-48
2022/09/21 06:45:58;;;;;;;1999.90;999.90;;;;;;;;;;5153191;27;20397;-49
2022/09/21 06:48:27;;;;;;;1999.90;999.90;;;;;;;;;;5152731;27;20091;-46
2022/09/21 06:50:58;;;;;;;1999.90;999.90;;;;;;;;;;5134817;27;20118;-51
2022/09/21 06:53:28;;;;;;;1999.90;999.90;;;;;;;;;;5152899;27;20413;-45
2022/09/21 06:56:04;;;;;;;1999.90;999.90;;;;;;;;;;5152931;27;20126;-48
2022/09/21 06:58:33;;;;;;;1999.90;999.90;;;;;;;;;;5153253;27;20452;-49
2022/09/21 07:01:09;;;;;;;1999.90;999.90;;;;;;;;;;5156994;27;20035;-49
2022/09/21 07:03:38;;;;;;;1999.90;999.90;;;;;;;;;;5156800;27;20034;-46
2022/09/21 07:06:06;;;;;;;1999.90;999.90;;;;;;;;;;5156688;27;20041;-49
2022/09/21 07:08:34;;;;;;;1999.90;999.90;;;;;;;;;;5156723;27;20038;-49
2022/09/21 07:11:22;;;;;;;1999.90;999.90;;;;;;;;;;5156045;27;20760;-49
2022/09/21 07:13:51;;;;;;;1999.90;999.90;;;;;;;;;;5154935;27;20038;-50
2022/09/21 07:16:19;;;;;;;1999.90;999.90;;;;;;;;;;5155039;27;20511;-43
2022/09/21 07:18:47;;;;;;;1999.90;999.90;;;;;;;;;;5154956;27;20095;-47
2022/09/21 07:21:15;;;;;;;1999.90;999.90;;;;;;;;;;5154763;27;20697;-43
2022/09/21 07:23:42;;;;;;;1999.90;999.90;;;;;;;;;;5155146;27;20035;-49
2022/09/21 07:26:13;;;;;;;1999.90;999.90;;;;;;;;;;5155048;27;20494;-46
2022/09/21 07:28:41;;;;;;;1999.90;999.90;;;;;;;;;;5154862;27;20035;-49
2022/09/21 07:31:12;;;;;;;1999.90;999.90;;;;;;;;;;5154472;27;20042;-52
2022/09/21 07:33:41;;;;;;;1999.90;999.90;;;;;;;;;;5155085;27;20641;-53
2022/09/21 07:36:11;;;;;;;1999.90;999.90;;;;;;;;;;5154612;27;20538;-48
2022/09/21 07:38:43;;;;;;;1999.90;999.90;;;;;;;;;;5154443;27;20043;-48
2022/09/21 07:41:12;;;;;;;1999.90;999.90;;;;;;;;;;5154835;27;20039;-49
2022/09/21 07:43:40;;;;;;;1999.90;999.90;;;;;;;;;;5154252;27;20041;-48
2022/09/21 07:46:10;;;;;;;1999.90;999.90;;;;;;;;;;5154506;27;20558;-52
2022/09/21 07:48:38;;;;;;;1999.90;999.90;;;;;;;;;;5154286;27;20035;-49
2022/09/21 07:51:09;;;;;;;1999.90;999.90;;;;;;;;;;5154403;27;20616;-50
2022/09/21 07:53:40;;;;;;;1999.90;999.90;;;;;;;;;;5154344;27;20039;-47
2022/09/21 07:56:17;;;;;;;1999.90;999.90;;;;;;;;;;5154596;27;20126;-48
2022/09/21 08:01:36;;;;;;;1999.90;999.90;;;;;;;;;;5155874;27;20173;-48
2022/09/21 08:04:06;;;;;;;1999.90;999.90;;;;;;;;;;5155793;27;20043;-48
2022/09/21 08:06:38;;;;;;;1999.90;999.90;;;;;;;;;;5155636;27;20035;-50
2022/09/21 08:09:07;;;;;;;1999.90;999.90;;;;;;;;;;5155429;27;20107;-46
2022/09/21 08:11:36;;;;;;;1999.90;999.90;;;;;;;;;;5155237;27;20076;-47
2022/09/21 08:14:03;;;;;;;1999.90;999.90;;;;;;;;;;5155436;27;20035;-43
2022/09/21 08:16:32;;;;;;;1999.90;999.90;;;;;;;;;;5155458;27;20041;-43
2022/09/21 08:19:01;;;;;;;1999.90;999.90;;;;;;;;;;5155248;27;20094;-45
2022/09/21 08:21:29;;;;;;;1999.90;999.90;;;;;;;;;;5155505;27;20466;-45
2022/09/21 08:23:56;;;;;;;1999.90;999.90;;;;;;;;;;5155324;27;20083;-43
2022/09/21 08:26:24;;;;;;;1999.90;999.90;;;;;;;;;;5155130;27;20038;-43
2022/09/21 08:28:56;;;;;;;1999.90;999.90;;;;;;;;;;5155332;27;20031;-47
2022/09/21 08:31:25;;;;;;;1999.90;999.90;;;;;;;;;;5154987;27;20035;-44
2022/09/21 08:33:53;;;;;;;1999.90;999.90;;;;;;;;;;5155054;27;20516;-47
2022/09/21 08:36:21;;;;;;;1999.90;999.90;;;;;;;;;;5155019;27;20043;-44
2022/09/21 08:38:49;;;;;;;1999.90;999.90;;;;;;;;;;5155019;27;20039;-41
2022/09/21 08:41:38;;;;;;;1999.90;999.90;;;;;;;;;;5155222;27;20038;-49
2022/09/21 08:44:27;;;;;;;1999.90;999.90;;;;;;;;;;5155021;27;20497;-45
2022/09/21 08:47:40;;;;;;;1999.90;999.90;;;;;;;;;;5154836;27;20092;-46
2022/09/21 08:50:36;;;;;;;1999.90;999.90;;;;;;;;;;5070788;28;20045;-48
2022/09/21 08:53:10;;;;;;;1999.90;999.90;;;;;;;;;;5070519;28;20036;-46
2022/09/21 08:55:38;;;;;;;1999.90;999.90;;;;;;;;;;5131455;27;20047;-46
2022/09/21 08:58:23;;;;;;;1999.90;999.90;;;;;;;;;;5154744;27;20461;-49
2022/09/21 09:01:04;;;;;;;1999.90;999.90;;;;;;;;;;5154775;27;20038;-48
2022/09/21 09:03:58;;;;;;;1999.90;999.90;;;;;;;;;;5154407;27;20047;-47
2022/09/21 09:06:46;;;;;;;1999.90;999.90;;;;;;;;;;5153883;27;20043;-47
2022/09/21 09:09:20;;;;;;;1999.90;999.90;;;;;;;;;;5154488;27;20141;-46
2022/09/21 09:11:55;;;;;;;1999.90;999.90;;;;;;;;;;5154475;27;20558;-46
2022/09/21 09:14:42;;;;;;;1999.90;999.90;;;;;;;;;;5154400;27;20138;-48
2022/09/21 09:17:32;;;;;;;1999.90;999.90;;;;;;;;;;5154442;27;20402;-45
2022/09/21 09:20:06;;;;;;;1999.90;999.90;;;;;;;;;;5154309;27;20393;-46
2022/09/21 09:22:39;;;;;;;1999.90;999.90;;;;;;;;;;5153454;27;20042;-48
2022/09/21 09:25:16;;;;;;;1999.90;999.90;;;;;;;;;;5154183;27;20041;-48
2022/09/21 09:27:47;;;;;;;1999.90;999.90;;;;;;;;;;5153713;27;20082;-46
2022/09/21 09:30:25;;;;;;;1999.90;999.90;;;;;;;;;;5153695;27;20039;-45
2022/09/21 09:33:21;;;;;;;1999.90;999.90;;;;;;;;;;5153805;27;20109;-45
2022/09/21 09:36:04;;;;;;;1999.90;999.90;;;;;;;;;;5153989;27;20043;-48
2022/09/21 09:38:59;;;;;;;1999.90;999.90;;;;;;;;;;5153951;27;20526;-45
2022/09/21 09:41:51;;;;;;;1999.90;999.90;;;;;;;;;;5154052;27;20045;-45
2022/09/21 09:44:43;;;;;;;1999.90;999.90;;;;;;;;;;5154035;27;20038;-48
2022/09/21 09:47:40;;;;;;;1999.90;999.90;;;;;;;;;;5153760;27;20035;-48
2022/09/21 09:50:26;;;;;;;1999.90;999.90;;;;;;;;;;5153993;27;20114;-46
2022/09/21 09:53:05;;;;;;;1999.90;999.90;;;;;;;;;;5153371;27;20561;-45
2022/09/21 09:55:53;;;;;;;1999.90;999.90;;;;;;;;;;5153855;27;20383;-49
2022/09/21 09:58:46;;;;;;;1999.90;999.90;;;;;;;;;;5153741;27;20065;-49
2022/09/21 10:01:37;;;;;;;1999.90;999.90;;;;;;;;;;5153416;27;20072;-45
2022/09/21 10:04:07;;;;;;;1999.90;999.90;;;;;;;;;;5153538;27;20046;-47
2022/09/21 10:06:38;;;;;;;1999.90;999.90;;;;;;;;;;5153081;27;20106;-50
2022/09/21 10:09:27;;;;;;;1999.90;999.90;;;;;;;;;;5153792;27;20030;-46
2022/09/21 10:12:02;;;;;;;1999.90;999.90;;;;;;;;;;5153614;27;20031;-45
2022/09/21 10:14:36;;;;;;;1999.90;999.90;;;;;;;;;;5153185;27;20087;-49
2022/09/21 10:17:07;;;;;;;1999.90;999.90;;;;;;;;;;5153638;27;20034;-50
2022/09/21 10:19:36;;;;;;;1999.90;999.90;;;;;;;;;;5153400;27;20057;-46
2022/09/21 10:22:04;;;;;;;1999.90;999.90;;;;;;;;;;5153248;27;20031;-44
2022/09/21 10:24:35;;;;;;;1999.90;999.90;;;;;;;;;;5153401;27;20125;-47
2022/09/21 10:27:05;;;;;;;1999.90;999.90;;;;;;;;;;5153255;27;20141;-47
2022/09/21 10:29:42;;;;;;;1999.90;999.90;;;;;;;;;;5153075;27;20066;-47
2022/09/21 10:32:12;;;;;;;1999.90;999.90;;;;;;;;;;5153275;27;20070;-47
2022/09/21 10:35:01;;;;;;;1999.90;999.90;;;;;;;;;;5157205;27;20505;-49
2022/09/21 10:37:33;;;;;;;1999.90;999.90;;;;;;;;;;5157615;27;20398;-46
2022/09/21 10:40:02;;;;;;;1999.90;999.90;;;;;;;;;;5157495;27;20091;-47
2022/09/21 10:42:35;;;;;;;1999.90;999.90;;;;;;;;;;5157185;27;20043;-43
2022/09/21 10:45:18;;;;;;;1999.90;999.90;;;;;;;;;;5157159;27;20030;-42
2022/09/21 10:47:49;;;;;;;1999.90;999.90;;;;;;;;;;5157372;27;20520;-45
2022/09/21 10:50:23;;;;;;;1999.90;999.90;;;;;;;;;;5157260;27;20030;-43
2022/09/21 10:53:09;;;;;;;1999.90;999.90;;;;;;;;;;5156492;27;20038;-48
2022/09/21 10:55:41;;;;;;;1999.90;999.90;;;;;;;;;;5156957;27;20051;-48
2022/09/21 10:58:24;;;;;;;1999.90;999.90;;;;;;;;;;5157027;27;20499;-44
2022/09/21 11:00:54;;;;;;;1999.90;999.90;;;;;;;;;;5156952;27;20050;-48
2022/09/21 11:03:47;;;;;;;1999.90;999.90;;;;;;;;;;5138977;27;20046;-48
2022/09/21 11:06:21;;;;;;;1999.90;999.90;;;;;;;;;;5156765;27;20046;-47
2022/09/21 11:09:00;;;;;;;1999.90;999.90;;;;;;;;;;5156675;27;20521;-50
2022/09/21 11:11:36;;;;;;;1999.90;999.90;;;;;;;;;;5156891;27;20039;-41
2022/09/21 11:14:42;;;;;;;1999.90;999.90;;;;;;;;;;5156661;27;20446;-46
2022/09/21 11:17:38;;;;;;;1999.90;999.90;;;;;;;;;;5156446;27;20041;-47
2022/09/21 11:20:14;;;;;;;1999.90;999.90;;;;;;;;;;5156549;27;20034;-47
2022/09/21 11:22:52;;;;;;;1999.90;999.90;;;;;;;;;;5156451;27;20043;-46
2022/09/21 11:25:32;;;;;;;1999.90;999.90;;;;;;;;;;5156618;27;20043;-47
2022/09/21 11:28:34;;;;;;;1999.90;999.90;;;;;;;;;;5156374;27;20052;-47
2022/09/21 11:31:26;;;;;;;1999.90;999.90;;;;;;;;;;5156552;27;20031;-49
2022/09/21 11:34:15;;;;;;;1999.90;999.90;;;;;;;;;;5156329;27;20628;-42
2022/09/21 11:37:13;;;;;;;1999.90;999.90;;;;;;;;;;5156204;27;20070;-51
2022/09/21 11:40:18;;;;;;;1999.90;999.90;;;;;;;;;;5156069;27;20035;-47
2022/09/21 11:43:31;;;;;;;1999.90;999.90;;;;;;;;;;5156123;27;20031;-44
2022/09/21 11:46:06;;;;;;;1999.90;999.90;;;;;;;;;;5155663;27;20370;-48
2022/09/21 11:49:06;;;;;;;1999.90;999.90;;;;;;;;;;5156037;27;20162;-49
2022/09/21 11:52:01;;;;;;;1999.90;999.90;;;;;;;;;;5156108;27;20035;-48
2022/09/21 11:54:35;;;;;;;1999.90;999.90;;;;;;;;;;5155978;27;20055;-42
2022/09/21 11:57:21;;;;;;;1999.90;999.90;;;;;;;;;;5155955;27;20134;-46
2022/09/21 12:00:06;;;;;;;1999.90;999.90;;;;;;;;;;5154462;27;20060;-45
2022/09/21 12:03:22;;;;;;;1999.90;999.90;;;;;;;;;;5155816;27;20035;-44
2022/09/21 12:06:11;;;;;;;1999.90;999.90;;;;;;;;;;5155654;27;20039;-48
2022/09/21 12:09:04;;;;;;;1999.90;999.90;;;;;;;;;;5155368;27;20045;-46
2022/09/21 12:12:21;;;;;;;1999.90;999.90;;;;;;;;;;5155542;27;20401;-47
2022/09/21 12:15:10;;;;;;;1999.90;999.90;;;;;;;;;;5138513;27;20060;-48
2022/09/21 12:18:01;;;;;;;1999.90;999.90;;;;;;;;;;5155559;27;20486;-45
2022/09/21 12:21:10;;;;;;;1999.90;999.90;;;;;;;;;;5155613;27;20056;-41
2022/09/21 12:23:42;;;;;;;1999.90;999.90;;;;;;;;;;5154721;27;20038;-44
2022/09/21 12:26:14;;;;;;;1999.90;999.90;;;;;;;;;;5154828;27;20030;-41
2022/09/21 12:29:00;;;;;;;1999.90;999.90;;;;;;;;;;5155132;27;20034;-50
2022/09/21 12:31:28;;;;;;;1999.90;999.90;;;;;;;;;;5154978;27;20030;-46
2022/09/21 12:34:21;;;;;;;1999.90;999.90;;;;;;;;;;5155444;27;20070;-49
2022/09/21 12:37:14;;;;;;;1999.90;999.90;;;;;;;;;;5144557;27;20309;-44
2022/09/21 12:39:52;;;;;;;1999.90;999.90;;;;;;;;;;5143939;27;20050;-46
2022/09/21 12:42:21;;;;;;;1999.90;999.90;;;;;;;;;;5154700;27;20221;-47
2022/09/21 12:45:13;;;;;;;1999.90;999.90;;;;;;;;;;5154857;27;20042;-46
2022/09/21 12:47:44;;;;;;;1999.90;999.90;;;;;;;;;;5154669;27;20035;-47
2022/09/21 12:50:21;;;;;;;1999.90;999.90;;;;;;;;;;5154946;27;20142;-47
2022/09/21 12:52:50;;;;;;;1999.90;999.90;;;;;;;;;;5154513;27;20039;-47
2022/09/21 12:55:32;;;;;;;1999.90;999.90;;;;;;;;;;5154553;27;20405;-43
2022/09/21 12:58:23;;;;;;;1999.90;999.90;;;;;;;;;;5153679;27;20066;-42
2022/09/21 13:01:05;;;;;;;1999.90;999.90;;;;;;;;;;5154624;27;20566;-47
2022/09/21 13:03:54;;;;;;;1999.90;999.90;;;;;;;;;;5154486;27;20083;-48
2022/09/21 13:06:54;;;;;;;1999.90;999.90;;;;;;;;;;5154480;27;20039;-45
2022/09/21 13:09:22;;;;;;;1999.90;999.90;;;;;;;;;;5154404;27;20034;-47
2022/09/21 13:12:12;;;;;;;1999.90;999.90;;;;;;;;;;5154196;27;20039;-48
2022/09/21 13:14:46;;;;;;;1999.90;999.90;;;;;;;;;;5154192;27;20524;-43
2022/09/21 13:17:26;;;;;;;1999.90;999.90;;;;;;;;;;5154328;27;20043;-47
2022/09/21 13:20:05;;;;;;;1999.90;999.90;;;;;;;;;;5135798;27;20501;-41
2022/09/21 13:22:36;;;;;;;1999.90;999.90;;;;;;;;;;5154077;27;20066;-42
2022/09/21 13:25:05;;;;;;;1999.90;999.90;;;;;;;;;;5154303;27;20045;-43
2022/09/21 13:27:59;;;;;;;1999.90;999.90;;;;;;;;;;5153800;27;20552;-41
2022/09/21 13:30:35;;;;;;;1999.90;999.90;;;;;;;;;;5153642;27;20045;-40
2022/09/21 13:33:28;;;;;;;1999.90;999.90;;;;;;;;;;5154291;27;20039;-42
2022/09/21 13:35:59;;;;;;;1999.90;999.90;;;;;;;;;;5106790;27;20068;-42
2022/09/21 13:38:40;;;;;;;1999.90;999.90;;;;;;;;;;5154317;27;20043;-40
2022/09/21 13:41:16;;;;;;;1999.90;999.90;;;;;;;;;;5154017;27;20425;-41
2022/09/21 13:43:47;;;;;;;1999.90;999.90;;;;;;;;;;5153815;27;20039;-41
2022/09/21 13:46:36;;;;;;;1999.90;999.90;;;;;;;;;;5153777;27;20038;-41
2022/09/21 13:49:15;;;;;;;1999.90;999.90;;;;;;;;;;5153964;27;20057;-43
2022/09/21 13:52:04;;;;;;;1999.90;999.90;;;;;;;;;;5152727;27;20038;-40
2022/09/21 13:54:45;;;;;;;1999.90;999.90;;;;;;;;;;5152092;27;20549;-43
2022/09/21 13:57:35;;;;;;;1999.90;999.90;;;;;;;;;;5161675;27;20062;-40
2022/09/21 14:00:06;;;;;;;1999.90;999.90;;;;;;;;;;5153711;27;20410;-41
2022/09/21 14:02:56;;;;;;;1999.90;999.90;;;;;;;;;;5172514;27;20041;-39
2022/09/21 14:06:01;;;;;;;1999.90;999.90;;;;;;;;;;5174278;27;20042;-38
2022/09/21 14:08:46;;;;;;;1999.90;999.90;;;;;;;;;;5172904;27;20050;-46
2022/09/21 14:11:32;;;;;;;1999.90;999.90;;;;;;;;;;5173921;27;20493;-41
2022/09/21 14:14:05;;;;;;;1999.90;999.90;;;;;;;;;;5174515;27;20464;-41
2022/09/21 14:16:38;;;;;;;1999.90;999.90;;;;;;;;;;5174394;27;20392;-41
2022/09/21 14:19:18;;;;;;;1999.90;999.90;;;;;;;;;;5174226;27;20030;-40
2022/09/21 14:24:50;;;;;;;1999.90;999.90;;;;;;;;;;5173944;27;20044;-41
2022/09/21 14:27:24;;;;;;;1999.90;999.90;;;;;;;;;;5174249;27;20404;-41
2022/09/21 14:30:01;;;;;;;1999.90;999.90;;;;;;;;;;5170020;27;20454;-44
2022/09/21 14:32:44;;;;;;;1999.90;999.90;;;;;;;;;;5152801;27;20045;-43
2022/09/21 14:35:17;;;;;;;1999.90;999.90;;;;;;;;;;5152974;27;20038;-45
2022/09/21 14:37:57;;;;;;;1999.90;999.90;;;;;;;;;;5153390;27;20066;-41
2022/09/21 14:40:37;;;;;;;1999.90;999.90;;;;;;;;;;5152899;27;20035;-47